createdAt,value
2023-12-30T00:01:28.323Z,6.65
2023-12-30T00:03:59.424Z,6.64
2023-12-30T00:06:30.469Z,6.68
2023-12-30T00:09:01.390Z,6.69
2023-12-30T00:11:32.510Z,6.65
2023-12-30T00:14:03.387Z,6.65
2023-12-30T00:16:34.286Z,6.66
2023-12-30T00:19:05.366Z,6.65
2023-12-30T00:21:36.236Z,6.63
2023-12-30T00:24:07.715Z,6.66
2023-12-30T00:26:38.616Z,6.70
2023-12-30T00:29:09.438Z,6.75
2023-12-30T00:31:40.307Z,6.80
2023-12-30T00:34:11.432Z,6.75
2023-12-30T00:36:45.568Z,6.74
2023-12-30T00:39:16.410Z,6.73
2023-12-30T00:41:47.835Z,6.70
2023-12-30T00:44:18.756Z,6.63
2023-12-30T00:46:49.621Z,6.65
2023-12-30T00:49:20.606Z,6.68
2023-12-30T00:51:51.597Z,6.70
2023-12-30T00:54:22.573Z,6.72
2023-12-30T00:56:53.428Z,6.70
2023-12-30T00:59:24.281Z,6.66
2023-12-30T01:01:55.245Z,6.62
2023-12-30T01:04:26.228Z,6.59
2023-12-30T01:06:57.253Z,6.56
2023-12-30T01:09:28.123Z,6.50
2023-12-30T01:11:59.112Z,6.47
2023-12-30T01:14:30.050Z,6.43
2023-12-30T01:17:01.248Z,6.41
2023-12-30T01:19:32.232Z,6.38
2023-12-30T01:22:03.217Z,6.36
2023-12-30T01:24:34.152Z,6.34
2023-12-30T01:27:05.264Z,6.35
2023-12-30T01:29:36.162Z,6.35
2023-12-30T01:32:07.956Z,6.39
2023-12-30T01:34:38.899Z,6.40
2023-12-30T01:37:09.939Z,6.41
2023-12-30T01:39:40.906Z,6.45
2023-12-30T01:42:11.834Z,6.48
2023-12-30T01:44:43.330Z,6.51
2023-12-30T01:47:14.440Z,6.55
2023-12-30T01:49:45.584Z,6.55
2023-12-30T01:52:16.446Z,6.59
2023-12-30T01:54:47.530Z,6.60
2023-12-30T01:57:18.805Z,6.64
2023-12-30T01:59:49.875Z,6.66
2023-12-30T02:02:22.747Z,6.68
2023-12-30T02:04:53.684Z,6.65
2023-12-30T02:07:24.524Z,6.65
2023-12-30T02:09:55.344Z,6.68
2023-12-30T02:12:26.305Z,6.68
2023-12-30T02:14:57.184Z,6.70
2023-12-30T02:17:28.243Z,6.74
2023-12-30T02:19:59.515Z,6.78
2023-12-30T02:22:30.492Z,6.78
2023-12-30T02:25:01.499Z,6.75
2023-12-30T02:27:32.332Z,6.73
2023-12-30T02:30:03.150Z,6.70
2023-12-30T02:32:34.056Z,6.64
2023-12-30T02:35:05.298Z,6.62
2023-12-30T02:37:36.278Z,6.65
2023-12-30T02:40:08.479Z,6.69
2023-12-30T02:42:39.479Z,6.74
2023-12-30T02:45:12.517Z,6.78
2023-12-30T02:47:43.821Z,6.77
2023-12-30T02:50:15.798Z,6.71
2023-12-30T02:52:46.679Z,6.66
2023-12-30T02:55:17.738Z,6.59
2023-12-30T02:57:50.137Z,6.57
2023-12-30T03:00:21.747Z,6.57
2023-12-30T03:02:52.727Z,6.57
2023-12-30T03:05:23.810Z,6.58
2023-12-30T03:07:54.795Z,6.58
2023-12-30T03:10:25.834Z,6.59
2023-12-30T03:12:56.774Z,6.55
2023-12-30T03:15:27.648Z,6.48
2023-12-30T03:17:58.735Z,6.38
2023-12-30T03:20:29.876Z,6.21
2023-12-30T03:23:00.928Z,6.09
2023-12-30T03:25:32.068Z,6.04
2023-12-30T03:28:03.152Z,6.00
2023-12-30T03:30:34.087Z,6.01
2023-12-30T03:33:05.706Z,5.99
2023-12-30T03:35:36.878Z,5.97
2023-12-30T03:38:07.730Z,5.93
2023-12-30T03:40:38.601Z,5.86
2023-12-30T03:43:09.531Z,5.84
2023-12-30T03:45:40.384Z,5.85
2023-12-30T03:48:11.396Z,5.89
2023-12-30T03:50:42.566Z,5.92
2023-12-30T03:53:13.627Z,5.90
2023-12-30T03:55:44.585Z,5.87
2023-12-30T03:58:16.063Z,5.87
2023-12-30T04:00:47.110Z,5.82
2023-12-30T04:03:18.301Z,5.76
2023-12-30T04:05:49.083Z,5.78
2023-12-30T04:08:19.872Z,5.76
2023-12-30T04:10:50.878Z,5.77
2023-12-30T04:13:21.859Z,5.81
2023-12-30T04:15:52.892Z,5.79
2023-12-30T04:18:23.936Z,5.67
2023-12-30T04:20:55.041Z,5.64
2023-12-30T04:23:27.659Z,5.59
2023-12-30T04:25:58.577Z,5.55
2023-12-30T04:28:29.675Z,5.53
2023-12-30T04:31:01.380Z,5.55
2023-12-30T04:33:32.506Z,5.58
2023-12-30T04:36:03.432Z,5.62
2023-12-30T04:38:34.314Z,5.67
2023-12-30T04:41:05.287Z,5.69
2023-12-30T04:43:36.562Z,5.67
2023-12-30T04:46:07.892Z,5.66
2023-12-30T04:48:38.883Z,5.67
2023-12-30T04:51:09.732Z,5.68
2023-12-30T04:53:40.671Z,5.62
2023-12-30T04:56:16.282Z,5.57
2023-12-30T04:58:47.167Z,5.58
2023-12-30T05:01:18.334Z,5.63
2023-12-30T05:03:49.429Z,5.65
2023-12-30T05:06:23.654Z,5.66
2023-12-30T05:08:54.451Z,5.57
2023-12-30T05:11:25.668Z,5.51
2023-12-30T05:13:56.568Z,5.51
2023-12-30T05:16:27.436Z,5.45
2023-12-30T05:18:58.541Z,5.43
2023-12-30T05:21:29.686Z,5.45
2023-12-30T05:24:00.524Z,5.46
2023-12-30T05:26:31.459Z,5.44
2023-12-30T05:29:02.384Z,5.40
2023-12-30T05:31:33.327Z,5.38
2023-12-30T05:34:05.529Z,5.33
2023-12-30T05:36:37.352Z,5.30
2023-12-30T05:39:08.208Z,5.27
2023-12-30T05:41:39.472Z,5.25
2023-12-30T05:44:10.821Z,5.26
2023-12-30T05:46:41.892Z,5.27
2023-12-30T05:49:12.703Z,5.26
2023-12-30T05:51:46.373Z,5.25
2023-12-30T05:54:17.553Z,5.23
2023-12-30T05:56:48.440Z,5.22
2023-12-30T05:59:19.222Z,5.19
2023-12-30T06:01:50.158Z,5.13
2023-12-30T06:04:21.235Z,5.09
2023-12-30T06:06:52.230Z,5.10
2023-12-30T06:09:23.127Z,5.14
2023-12-30T06:11:54.006Z,5.15
2023-12-30T06:14:24.807Z,5.11
2023-12-30T06:16:55.757Z,5.06
2023-12-30T06:19:26.721Z,4.97
2023-12-30T06:21:57.742Z,4.88
2023-12-30T06:24:28.593Z,4.87
2023-12-30T06:26:59.671Z,4.88
2023-12-30T06:29:33.236Z,4.86
2023-12-30T06:32:04.694Z,4.85
2023-12-30T06:34:36.733Z,4.88
2023-12-30T06:37:07.760Z,4.85
2023-12-30T06:39:38.612Z,4.80
2023-12-30T06:42:09.586Z,4.74
2023-12-30T06:44:41.015Z,4.72
2023-12-30T06:47:13.832Z,4.76
2023-12-30T06:49:44.749Z,4.85
2023-12-30T06:52:16.256Z,4.91
2023-12-30T06:54:49.579Z,4.91
2023-12-30T06:57:26.547Z,4.91
2023-12-30T06:59:57.461Z,4.91
2023-12-30T07:02:28.477Z,4.91
2023-12-30T07:04:59.778Z,4.93
2023-12-30T07:07:30.689Z,5.00
2023-12-30T07:10:01.515Z,5.04
2023-12-30T07:12:32.237Z,5.02
2023-12-30T07:15:03.240Z,4.96
2023-12-30T07:17:34.344Z,4.89
2023-12-30T07:20:05.664Z,4.91
2023-12-30T07:22:36.576Z,4.96
2023-12-30T07:25:08.385Z,4.97
2023-12-30T07:27:39.949Z,5.01
2023-12-30T07:30:11.454Z,5.02
2023-12-30T07:32:42.387Z,4.98
2023-12-30T07:35:13.282Z,5.00
2023-12-30T07:37:44.776Z,5.04
2023-12-30T07:40:16.233Z,5.01
2023-12-30T07:42:47.164Z,5.00
2023-12-30T07:45:18.066Z,4.99
2023-12-30T07:47:48.968Z,4.97
2023-12-30T07:50:19.928Z,4.97
2023-12-30T07:52:50.756Z,4.98
2023-12-30T07:55:21.771Z,4.96
2023-12-30T07:57:52.787Z,4.95
2023-12-30T08:00:23.963Z,4.91
2023-12-30T08:02:54.872Z,4.87
2023-12-30T08:05:25.723Z,4.81
2023-12-30T08:07:56.548Z,4.80
2023-12-30T08:10:27.352Z,4.82
2023-12-30T08:12:58.334Z,4.87
2023-12-30T08:15:29.459Z,4.91
2023-12-30T08:18:00.529Z,4.94
2023-12-30T08:20:31.695Z,4.97
2023-12-30T08:23:02.789Z,5.00
2023-12-30T08:25:33.818Z,4.98
2023-12-30T08:28:04.818Z,5.00
2023-12-30T08:30:35.770Z,5.01
2023-12-30T08:33:09.974Z,4.98
2023-12-30T08:35:41.133Z,4.96
2023-12-30T08:38:11.902Z,4.97
2023-12-30T08:40:42.914Z,4.99
2023-12-30T08:43:14.951Z,5.05
2023-12-30T08:45:46.333Z,5.14
2023-12-30T08:48:17.827Z,5.22
2023-12-30T08:50:49.780Z,5.26
2023-12-30T08:53:26.078Z,5.32
2023-12-30T08:55:57.956Z,5.39
2023-12-30T08:58:28.859Z,5.47
2023-12-30T09:00:59.878Z,5.52
2023-12-30T09:03:30.785Z,5.56
2023-12-30T09:06:01.671Z,5.66
2023-12-30T09:08:32.574Z,5.73
2023-12-30T09:11:04.000Z,5.80
2023-12-30T09:13:34.887Z,5.84
2023-12-30T09:16:06.038Z,5.88
2023-12-30T09:18:36.993Z,5.96
2023-12-30T09:21:08.006Z,6.08
2023-12-30T09:23:39.416Z,6.22
2023-12-30T09:26:10.398Z,6.35
2023-12-30T09:28:41.814Z,6.48
2023-12-30T09:31:13.172Z,6.60
2023-12-30T09:33:44.297Z,6.72
2023-12-30T09:36:16.941Z,6.84
2023-12-30T09:38:47.946Z,6.96
2023-12-30T09:41:18.805Z,7.10
2023-12-30T09:43:49.627Z,7.21
2023-12-30T09:46:20.615Z,7.29
2023-12-30T09:48:51.541Z,7.38
2023-12-30T09:51:22.508Z,7.47
2023-12-30T09:53:53.343Z,7.57
2023-12-30T09:56:24.197Z,7.68
2023-12-30T09:58:55.100Z,7.82
2023-12-30T10:01:26.094Z,7.95
2023-12-30T10:03:57.221Z,8.11
2023-12-30T10:06:28.254Z,8.31
2023-12-30T10:08:58.988Z,8.49
2023-12-30T10:11:29.774Z,8.58
2023-12-30T10:14:00.647Z,8.77
2023-12-30T10:16:31.337Z,8.99
2023-12-30T10:19:02.313Z,9.29
2023-12-30T10:21:33.349Z,9.62
2023-12-30T10:24:05.756Z,9.93
2023-12-30T10:26:38.509Z,10.26
2023-12-30T10:29:09.492Z,10.60
2023-12-30T10:31:40.349Z,10.86
2023-12-30T10:34:11.450Z,10.89
2023-12-30T10:36:42.422Z,11.01
2023-12-30T10:39:16.643Z,11.06
2023-12-30T10:41:47.448Z,10.94
2023-12-30T10:44:18.258Z,10.87
2023-12-30T10:46:52.745Z,10.79
2023-12-30T10:49:25.375Z,10.74
2023-12-30T10:51:58.731Z,10.70
2023-12-30T10:54:32.405Z,10.66
2023-12-30T10:57:04.437Z,10.55
2023-12-30T10:59:35.294Z,10.43
2023-12-30T11:02:06.380Z,10.38
2023-12-30T11:04:37.270Z,10.37
2023-12-30T11:07:08.122Z,10.36
2023-12-30T11:09:39.040Z,10.28
2023-12-30T11:12:10.712Z,10.27
2023-12-30T11:14:41.546Z,10.30
2023-12-30T11:17:12.260Z,10.31
2023-12-30T11:19:43.766Z,10.33
2023-12-30T11:22:14.643Z,10.34
2023-12-30T11:24:46.950Z,10.36
2023-12-30T11:27:18.346Z,10.35
2023-12-30T11:29:49.575Z,10.38
2023-12-30T11:32:21.089Z,10.47
2023-12-30T11:34:52.497Z,10.54
2023-12-30T11:37:23.576Z,10.61
2023-12-30T11:39:54.394Z,10.72
2023-12-30T11:42:33.725Z,10.98
2023-12-30T11:45:13.339Z,11.32
2023-12-30T11:47:44.283Z,11.54
2023-12-30T11:50:15.625Z,11.82
2023-12-30T11:52:49.021Z,12.17
2023-12-30T11:55:20.115Z,12.35
2023-12-30T11:57:51.064Z,12.53
2023-12-30T12:00:22.816Z,12.63
2023-12-30T12:02:53.657Z,12.77
2023-12-30T12:05:25.428Z,13.02
2023-12-30T12:07:56.256Z,13.15
2023-12-30T12:10:27.096Z,13.17
2023-12-30T12:12:58.469Z,13.09
2023-12-30T12:15:29.467Z,13.03
2023-12-30T12:18:00.570Z,12.96
2023-12-30T12:20:32.823Z,12.89
2023-12-30T12:23:03.848Z,12.87
2023-12-30T12:25:35.008Z,12.86
2023-12-30T12:28:10.801Z,12.84
2023-12-30T12:30:41.691Z,12.83
2023-12-30T12:33:13.807Z,12.68
2023-12-30T12:35:44.652Z,12.64
2023-12-30T12:38:15.594Z,12.60
2023-12-30T12:40:47.468Z,12.54
2023-12-30T12:43:18.418Z,12.45
2023-12-30T12:45:49.186Z,12.40
2023-12-30T12:48:20.568Z,12.33
2023-12-30T12:50:51.983Z,12.23
2023-12-30T12:53:23.037Z,12.16
2023-12-30T12:55:53.916Z,12.05
2023-12-30T12:58:24.695Z,11.98
2023-12-30T13:00:55.539Z,11.93
2023-12-30T13:03:26.639Z,11.94
2023-12-30T13:05:57.747Z,11.93
2023-12-30T13:08:31.217Z,11.93
2023-12-30T13:11:03.735Z,11.92
2023-12-30T13:13:34.706Z,11.95
2023-12-30T13:16:06.048Z,11.93
2023-12-30T13:18:36.986Z,11.90
2023-12-30T13:21:09.637Z,11.89
2023-12-30T13:23:40.534Z,11.89
2023-12-30T13:26:12.851Z,11.91
2023-12-30T13:28:44.349Z,11.93
2023-12-30T13:31:18.682Z,11.93
2023-12-30T13:33:51.566Z,11.93
2023-12-30T13:36:22.560Z,11.93
2023-12-30T13:39:00.890Z,11.90
2023-12-30T13:41:31.816Z,11.84
2023-12-30T13:44:04.344Z,11.80
2023-12-30T13:46:58.528Z,11.76
2023-12-30T13:49:55.123Z,11.74
2023-12-30T13:52:28.304Z,11.76
2023-12-30T13:54:59.276Z,11.81
2023-12-30T13:57:33.262Z,11.83
2023-12-30T14:00:04.712Z,11.82
2023-12-30T14:02:39.845Z,11.82
2023-12-30T14:05:18.828Z,11.81
2023-12-30T14:07:52.266Z,11.77
2023-12-30T14:10:26.814Z,11.75
2023-12-30T14:13:02.805Z,11.73
2023-12-30T14:15:35.960Z,11.65
2023-12-30T14:18:07.516Z,11.60
2023-12-30T14:20:38.398Z,11.59
2023-12-30T14:23:09.329Z,11.57
2023-12-30T14:25:40.663Z,11.53
2023-12-30T14:28:11.526Z,11.46
2023-12-30T14:30:42.555Z,11.38
2023-12-30T14:33:13.502Z,11.34
2023-12-30T14:35:44.377Z,11.30
2023-12-30T14:38:15.278Z,11.31
2023-12-30T14:40:46.087Z,11.32
2023-12-30T14:43:17.721Z,11.31
2023-12-30T14:45:48.548Z,11.28
2023-12-30T14:48:19.379Z,11.23
2023-12-30T14:50:50.224Z,11.19
2023-12-30T14:53:21.048Z,11.18
2023-12-30T14:55:51.924Z,11.14
2023-12-30T14:58:22.770Z,11.06
2023-12-30T15:00:53.609Z,10.97
2023-12-30T15:03:24.466Z,10.89
2023-12-30T15:05:55.378Z,10.81
2023-12-30T15:08:26.305Z,10.78
2023-12-30T15:10:57.472Z,10.74
2023-12-30T15:13:28.263Z,10.72
2023-12-30T15:15:59.290Z,10.74
2023-12-30T15:18:30.243Z,10.76
2023-12-30T15:21:01.388Z,10.76
2023-12-30T15:23:32.292Z,10.77
2023-12-30T15:26:03.878Z,10.77
2023-12-30T15:28:34.724Z,10.76
2023-12-30T15:31:06.039Z,10.72
2023-12-30T15:33:37.553Z,10.70
2023-12-30T15:36:08.935Z,10.69
2023-12-30T15:38:40.616Z,10.69
2023-12-30T15:41:11.436Z,10.63
2023-12-30T15:43:42.487Z,10.57
2023-12-30T15:46:13.383Z,10.54
2023-12-30T15:48:44.223Z,10.47
2023-12-30T15:51:15.070Z,10.41
2023-12-30T15:53:46.264Z,10.36
2023-12-30T15:56:17.275Z,10.34
2023-12-30T15:58:48.204Z,10.29
2023-12-30T16:01:19.263Z,10.27
2023-12-30T16:03:50.399Z,10.24
2023-12-30T16:06:21.290Z,10.24
2023-12-30T16:08:52.148Z,10.27
2023-12-30T16:11:23.167Z,10.25
2023-12-30T16:13:53.988Z,10.22
2023-12-30T16:16:24.922Z,10.22
2023-12-30T16:18:56.669Z,10.22
2023-12-30T16:21:28.507Z,10.25
2023-12-30T16:23:59.458Z,10.24
2023-12-30T16:26:30.379Z,10.21
2023-12-30T16:29:03.255Z,10.20
2023-12-30T16:31:34.147Z,10.20
2023-12-30T16:34:05.387Z,10.15
2023-12-30T16:36:36.681Z,10.12
2023-12-30T16:39:07.927Z,10.13
2023-12-30T16:41:38.764Z,10.14
2023-12-30T16:44:09.634Z,10.12
2023-12-30T16:46:40.918Z,10.09
2023-12-30T16:49:12.020Z,10.07
2023-12-30T16:51:43.537Z,10.07
2023-12-30T16:54:15.262Z,10.09
2023-12-30T16:56:46.260Z,10.12
2023-12-30T16:59:17.412Z,10.12
2023-12-30T17:01:48.792Z,10.13
2023-12-30T17:04:21.328Z,10.11
2023-12-30T17:06:52.355Z,10.12
2023-12-30T17:09:23.189Z,10.10
2023-12-30T17:11:54.164Z,10.08
2023-12-30T17:14:24.944Z,10.06
2023-12-30T17:16:55.927Z,10.01
2023-12-30T17:19:26.811Z,9.98
2023-12-30T17:21:57.823Z,9.98
2023-12-30T17:24:28.826Z,9.98
2023-12-30T17:27:01.846Z,9.95
2023-12-30T17:29:33.967Z,9.96
2023-12-30T17:32:05.079Z,9.97
2023-12-30T17:34:36.102Z,9.93
2023-12-30T17:37:07.631Z,9.90
2023-12-30T17:39:38.395Z,9.86
2023-12-30T17:42:11.140Z,9.82
2023-12-30T17:44:42.834Z,9.78
2023-12-30T17:47:13.767Z,9.77
2023-12-30T17:49:44.605Z,9.77
2023-12-30T17:52:15.626Z,9.76
2023-12-30T17:54:46.478Z,9.75
2023-12-30T17:57:17.713Z,9.70
2023-12-30T17:59:48.546Z,9.67
2023-12-30T18:02:19.997Z,9.66
2023-12-30T18:04:51.134Z,9.62
2023-12-30T18:07:22.408Z,9.59
2023-12-30T18:09:53.322Z,9.59
2023-12-30T18:12:24.242Z,9.58
2023-12-30T18:14:55.049Z,9.55
2023-12-30T18:17:29.126Z,9.52
2023-12-30T18:20:00.157Z,9.49
2023-12-30T18:22:31.441Z,9.41
2023-12-30T18:25:02.464Z,9.38
2023-12-30T18:27:33.405Z,9.37
2023-12-30T18:30:04.369Z,9.35
2023-12-30T18:32:35.259Z,9.36
2023-12-30T18:35:07.245Z,9.35
2023-12-30T18:37:38.545Z,9.35
2023-12-30T18:40:11.878Z,9.36
2023-12-30T18:42:43.551Z,9.36
2023-12-30T18:45:16.075Z,9.35
2023-12-30T18:47:47.007Z,9.34
2023-12-30T18:50:18.066Z,9.30
2023-12-30T18:52:51.237Z,9.24
2023-12-30T18:55:22.189Z,9.21
2023-12-30T18:57:53.176Z,9.20
2023-12-30T19:00:26.669Z,9.18
2023-12-30T19:02:57.521Z,9.18
2023-12-30T19:05:29.730Z,9.17
2023-12-30T19:08:00.758Z,9.16
2023-12-30T19:10:31.656Z,9.15
2023-12-30T19:13:02.928Z,9.14
2023-12-30T19:15:34.044Z,9.12
2023-12-30T19:18:06.725Z,9.10
2023-12-30T19:20:38.171Z,9.03
2023-12-30T19:23:09.201Z,9.01
2023-12-30T19:25:40.061Z,9.01
2023-12-30T19:28:11.050Z,9.00
2023-12-30T19:30:42.172Z,9.00
2023-12-30T19:33:14.060Z,8.97
2023-12-30T19:35:46.580Z,8.93
2023-12-30T19:38:18.301Z,8.87
2023-12-30T19:40:51.144Z,8.78
2023-12-30T19:43:22.836Z,8.74
2023-12-30T19:45:54.886Z,8.76
2023-12-30T19:48:26.348Z,8.76
2023-12-30T19:50:59.511Z,8.76
2023-12-30T19:53:30.396Z,8.77
2023-12-30T19:56:02.675Z,8.76
2023-12-30T19:58:33.850Z,8.76
2023-12-30T20:01:05.066Z,8.76
2023-12-30T20:03:36.041Z,8.74
2023-12-30T20:06:07.602Z,8.73
2023-12-30T20:08:38.579Z,8.71
2023-12-30T20:11:10.655Z,8.67
2023-12-30T20:13:41.615Z,8.64
2023-12-30T20:16:12.627Z,8.63
2023-12-30T20:18:45.714Z,8.62
2023-12-30T20:21:17.529Z,8.59
2023-12-30T20:23:48.466Z,8.53
2023-12-30T20:26:19.345Z,8.48
2023-12-30T20:28:51.571Z,8.48
2023-12-30T20:31:22.618Z,8.48
2023-12-30T20:33:53.594Z,8.49
2023-12-30T20:36:25.138Z,8.49
2023-12-30T20:38:56.811Z,8.49
2023-12-30T20:41:28.240Z,8.50
2023-12-30T20:43:59.122Z,8.50
2023-12-30T20:46:31.113Z,8.50
2023-12-30T20:49:04.996Z,8.50
2023-12-30T20:51:36.122Z,8.48
2023-12-30T20:54:07.075Z,8.47
2023-12-30T20:56:37.887Z,8.46
2023-12-30T20:59:08.739Z,8.45
2023-12-30T21:01:39.616Z,8.43
2023-12-30T21:04:10.863Z,8.42
2023-12-30T21:06:41.850Z,8.42
2023-12-30T21:09:12.851Z,8.41
2023-12-30T21:11:44.464Z,8.40
2023-12-30T21:14:15.424Z,8.37
2023-12-30T21:16:46.775Z,8.36
2023-12-30T21:19:18.112Z,8.36
2023-12-30T21:21:49.084Z,8.32
2023-12-30T21:24:19.890Z,8.28
2023-12-30T21:26:50.738Z,8.28
2023-12-30T21:29:23.159Z,8.28
2023-12-30T21:31:54.145Z,8.27
2023-12-30T21:34:26.015Z,8.27
2023-12-30T21:36:56.900Z,8.30
2023-12-30T21:39:27.815Z,8.34
2023-12-30T21:41:59.030Z,8.38
2023-12-30T21:44:29.911Z,8.42
2023-12-30T21:47:00.864Z,8.45
2023-12-30T21:49:32.421Z,8.45
2023-12-30T21:52:03.373Z,8.43
2023-12-30T21:54:34.299Z,8.43
2023-12-30T21:57:05.111Z,8.42
2023-12-30T21:59:36.363Z,8.41
2023-12-30T22:02:07.428Z,8.39
2023-12-30T22:04:38.474Z,8.38
2023-12-30T22:07:09.314Z,8.37
2023-12-30T22:09:40.312Z,8.37
2023-12-30T22:12:11.211Z,8.36
2023-12-30T22:14:42.090Z,8.37
2023-12-30T22:17:13.088Z,8.36
2023-12-30T22:19:45.644Z,8.36
2023-12-30T22:22:16.601Z,8.33
2023-12-30T22:24:48.182Z,8.29
2023-12-30T22:27:19.106Z,8.26
2023-12-30T22:29:50.037Z,8.23
2023-12-30T22:32:21.036Z,8.22
2023-12-30T22:34:52.306Z,8.20
2023-12-30T22:37:23.285Z,8.21
2023-12-30T22:39:54.255Z,8.20
2023-12-30T22:42:25.281Z,8.19
2023-12-30T22:44:56.272Z,8.16
2023-12-30T22:47:27.236Z,8.12
2023-12-30T22:49:58.281Z,8.05
2023-12-30T22:52:29.363Z,8.05
2023-12-30T22:55:00.289Z,8.06
2023-12-30T22:57:31.205Z,8.08
2023-12-30T23:00:02.450Z,8.10
2023-12-30T23:02:33.632Z,8.12
2023-12-30T23:05:04.472Z,8.12
2023-12-30T23:07:35.443Z,8.11
2023-12-30T23:10:08.342Z,8.10
2023-12-30T23:12:40.343Z,8.07
2023-12-30T23:15:11.679Z,8.07
2023-12-30T23:17:42.635Z,8.06
2023-12-30T23:20:14.002Z,8.06
2023-12-30T23:22:44.913Z,8.02
2023-12-30T23:25:16.002Z,7.97
2023-12-30T23:27:47.874Z,7.91
2023-12-30T23:30:18.988Z,7.88
2023-12-30T23:32:49.861Z,7.88
2023-12-30T23:35:20.881Z,7.88
2023-12-30T23:37:51.881Z,7.83
2023-12-30T23:40:22.831Z,7.73
2023-12-30T23:42:54.376Z,7.64
2023-12-30T23:45:25.405Z,7.61
2023-12-30T23:47:56.184Z,7.58
2023-12-30T23:50:27.015Z,7.52
2023-12-30T23:52:57.916Z,7.50
2023-12-30T23:55:28.765Z,7.45
2023-12-30T23:57:59.699Z,7.43
